Searching for u-Nu?

 
u-Nu
 
AirNav: KUNU Dodge County Airport.
211015Z AUTO 13003KT 2 1/2SM HZ CLR 07/M02 A2989 RMK AO2 T00661020 TSNO. 211015Z AUTO 00000KT 10SM CLR 06/M01 A2988 RMK AO2 T00631009. 210836Z 2109/2206 18005KT P6SM FEW100 FM211400 18007KT P6SM FEW100 FM211800 19012G19KT P6SM SCT250 FM220100 17010KT P6SM SCT200.
University of Birmingham A leading global university.
British and German soldiers stories reveal historic cinema and theatre insight. A University of Birmingham expert is joining forces with British Army and the Bundeswehr to help strengthen bonds between German and British soldiers. Birmingham Perspective Game of Thrones and dysfunctional politics.
Reserveert u nu Camping Bon Repòs.
Voor 5 tot 6 personen Premium. Voor 2 tot 4 personen Premium. Voor 5 tot 6 personen Standaard. Voor 2 tot 4 personen Standard. Reserveert u nu. Reserveert u nu. Reserveert u nu. BESCHERMING VAN PRIVÉ PERSOONENGEGEVENS. Camping Bungalow Park.
myunu UNU Mobile Solutions and Accessories For Your Favorite Smartphone.
Get all day power in just 15 minutes. A powerful reserve of energy 3000mAh in a power crisis, for the times you need it most. Smart LED Screen. Shows remaining charging times in minutes and current power levels within 1%.
Buy Electric Scooter Online unu.
If you need help, you can either get in touch with us directly or contact one of our partner garages. A Day With unu. Accompany singer-songwriter Mogli on a day in Berlin and discover how unu enables life in the city.
The United Nations University Fisheries Training Programme in Iceland.
The concept of value chain in fisheries has been identified as one of key areas for development in the Caribbean fisheries. This workshop is part of a long-standing collaboration between the Caribbean Regional Fisheries Mechanism and UNU-FTP. Congratulations UNU-FTP fellows 20th cohort.
Disability, Life and Financial Protection Benefits Unum.
Select the category below that best describes you. Protect whats important with benefits from Unum. Employers Plan Administrators. Offer better benefits for the people who keep your business growing. Connect your clients to powerful benefit solutions. Already have an account?
U Nu prime minister of Myanmar Britannica.com.
In March 1962, however, Ne Win staged a coup détat, establishing a military government and putting U Nu in prison. Following his release from prison, U Nu left Myanmar 1969 and began organizing a resistance movement against the Ne Win government.

Contact Us